Wetterdaten: Woche 13.04.15 - 19.04.15 (KW16)
Datum Zeit Temperatur Luftfeuchte Luftdruck Niederschlag Windrichtung Sonnenschein Solar Wind
13.04.2015 00:00 8,6 C 75 % 1026,3 hPa 0,0 l/m N 0,00 h 0 W/m 0,1 km/h (0 Bft)
13.04.2015 01:00 7,5 C 78 % 1026,3 hPa 0,0 l/m N 0,00 h 0 W/m 0,0 km/h (0 Bft)
13.04.2015 02:00 6,5 C 81 % 1026,4 hPa 0,0 l/m N 0,00 h 0 W/m 0,0 km/h (0 Bft)
13.04.2015 03:00 5,7 C 84 % 1026,3 hPa 0,0 l/m N 0,00 h 0 W/m 0,1 km/h (0 Bft)
13.04.2015 04:00 5,0 C 87 % 1026,6 hPa 0,0 l/m N 0,00 h 0 W/m 0,0 km/h (0 Bft)
13.04.2015 05:00 4,5 C 89 % 1027,0 hPa 0,0 l/m N 0,00 h 0 W/m 0,0 km/h (0 Bft)
13.04.2015 06:00 4,2 C 90 % 1027,3 hPa 0,0 l/m N 0,00 h 8 W/m 0,0 km/h (0 Bft)
13.04.2015 07:00 4,7 C 93 % 1027,7 hPa 0,0 l/m N 0,00 h 53 W/m 0,0 km/h (0 Bft)
13.04.2015 08:00 8,3 C 88 % 1028,2 hPa 0,0 l/m W-SW 0,58 h 167 W/m 2,9 km/h (1 Bft)
13.04.2015 09:00 11,8 C 76 % 1028,7 hPa 0,0 l/m W-SW 0,67 h 303 W/m 9,0 km/h (2 Bft)
13.04.2015 10:00 13,9 C 66 % 1029,1 hPa 0,0 l/m W-NW 1,00 h 523 W/m 17,0 km/h (3 Bft)
13.04.2015 11:00 14,8 C 60 % 1029,1 hPa 0,0 l/m W-NW 0,92 h 630 W/m 17,4 km/h (3 Bft)
13.04.2015 12:00 16,1 C 54 % 1028,5 hPa 0,0 l/m W-NW 0,83 h 673 W/m 17,7 km/h (3 Bft)
13.04.2015 13:00 17,1 C 48 % 1028,2 hPa 0,0 l/m W-NW 1,00 h 759 W/m 20,2 km/h (4 Bft)
13.04.2015 14:00 18,1 C 41 % 1027,7 hPa 0,0 l/m W-NW 0,92 h 714 W/m 24,4 km/h (4 Bft)
13.04.2015 15:00 18,7 C 40 % 1026,9 hPa 0,0 l/m W-NW 0,67 h 493 W/m 21,3 km/h (4 Bft)
13.04.2015 16:00 19,1 C 39 % 1026,3 hPa 0,0 l/m W-NW 1,00 h 491 W/m 23,0 km/h (4 Bft)
13.04.2015 17:00 18,5 C 39 % 1026,2 hPa 0,0 l/m W-NW 1,00 h 346 W/m 21,3 km/h (4 Bft)
13.04.2015 18:00 17,4 C 43 % 1026,2 hPa 0,0 l/m W-NW 0,50 h 142 W/m 14,5 km/h (3 Bft)
13.04.2015 19:00 16,2 C 46 % 1026,3 hPa 0,0 l/m W 0,00 h 40 W/m 9,2 km/h (2 Bft)
13.04.2015 20:00 14,1 C 53 % 1026,6 hPa 0,0 l/m W 0,00 h 5 W/m 2,3 km/h (1 Bft)
13.04.2015 21:00 12,3 C 62 % 1027,2 hPa 0,0 l/m W 0,00 h 0 W/m 3,5 km/h (1 Bft)
13.04.2015 22:00 13,0 C 61 % 1027,7 hPa 0,0 l/m NW 0,00 h 0 W/m 6,0 km/h (2 Bft)
13.04.2015 23:00 11,9 C 65 % 1027,8 hPa 0,0 l/m NW 0,00 h 0 W/m 6,4 km/h (2 Bft)
14.04.2015 00:00 10,9 C 68 % 1028,0 hPa 0,0 l/m NW 0,00 h 0 W/m 4,1 km/h (1 Bft)
14.04.2015 01:00 9,5 C 73 % 1028,3 hPa 0,0 l/m NW 0,00 h 0 W/m 1,6 km/h (1 Bft)
14.04.2015 02:00 8,3 C 77 % 1028,3 hPa 0,0 l/m N 0,00 h 0 W/m 0,0 km/h (0 Bft)
14.04.2015 03:00 7,2 C 79 % 1028,3 hPa 0,0 l/m N 0,00 h 0 W/m 0,0 km/h (0 Bft)
14.04.2015 04:00 6,1 C 81 % 1028,2 hPa 0,0 l/m N 0,00 h 0 W/m 0,0 km/h (0 Bft)
14.04.2015 05:00 5,3 C 84 % 1028,3 hPa 0,0 l/m N 0,00 h 0 W/m 0,5 km/h (0 Bft)
14.04.2015 06:00 5,0 C 87 % 1028,4 hPa 0,0 l/m N 0,00 h 8 W/m 0,0 km/h (0 Bft)
14.04.2015 07:00 4,6 C 90 % 1028,8 hPa 0,0 l/m N 0,00 h 52 W/m 0,1 km/h (0 Bft)
14.04.2015 08:00 6,9 C 88 % 1028,8 hPa 0,0 l/m N 0,67 h 198 W/m 0,7 km/h (0 Bft)
14.04.2015 09:00 10,4 C 79 % 1028,8 hPa 0,0 l/m SW 1,00 h 389 W/m 7,6 km/h (2 Bft)
14.04.2015 10:00 13,1 C 65 % 1028,9 hPa 0,0 l/m W-SW 1,00 h 557 W/m 15,0 km/h (3 Bft)
14.04.2015 11:00 14,7 C 54 % 1028,8 hPa 0,0 l/m W-SW 1,00 h 680 W/m 18,0 km/h (3 Bft)
14.04.2015 12:00 16,3 C 48 % 1028,3 hPa 0,0 l/m W-SW 1,00 h 758 W/m 15,3 km/h (3 Bft)
14.04.2015 13:00 17,6 C 42 % 1027,7 hPa 0,0 l/m W 1,00 h 794 W/m 15,7 km/h (3 Bft)
14.04.2015 14:00 18,8 C 41 % 1027,0 hPa 0,0 l/m SW 0,92 h 738 W/m 14,3 km/h (3 Bft)
14.04.2015 15:00 18,9 C 39 % 1026,1 hPa 0,0 l/m SW 0,92 h 664 W/m 12,9 km/h (3 Bft)
14.04.2015 16:00 19,3 C 40 % 1025,2 hPa 0,0 l/m SW 0,75 h 508 W/m 15,0 km/h (3 Bft)
14.04.2015 17:00 19,5 C 40 % 1024,7 hPa 0,0 l/m SW 1,00 h 424 W/m 16,6 km/h (3 Bft)
14.04.2015 18:00 18,6 C 42 % 1024,5 hPa 0,0 l/m W-SW 1,00 h 229 W/m 14,6 km/h (3 Bft)
14.04.2015 19:00 16,7 C 48 % 1024,2 hPa 0,0 l/m SW 0,00 h 42 W/m 11,6 km/h (2 Bft)
14.04.2015 20:00 15,4 C 49 % 1024,3 hPa 0,0 l/m W-SW 0,00 h 6 W/m 13,0 km/h (3 Bft)
14.04.2015 21:00 14,7 C 50 % 1024,4 hPa 0,0 l/m W-SW 0,00 h 0 W/m 12,4 km/h (3 Bft)
14.04.2015 22:00 11,9 C 61 % 1024,3 hPa 0,0 l/m N 0,00 h 0 W/m 2,0 km/h (1 Bft)
14.04.2015 23:00 10,6 C 66 % 1024,0 hPa 0,0 l/m N 0,00 h 0 W/m 2,5 km/h (1 Bft)
15.04.2015 00:00 9,5 C 70 % 1023,9 hPa 0,0 l/m N 0,00 h 0 W/m 0,1 km/h (0 Bft)
15.04.2015 01:00 8,2 C 73 % 1023,5 hPa 0,0 l/m N 0,00 h 0 W/m 0,5 km/h (0 Bft)
15.04.2015 02:00 7,1 C 76 % 1022,9 hPa 0,0 l/m N 0,00 h 0 W/m 0,0 km/h (0 Bft)
15.04.2015 03:00 6,2 C 78 % 1022,4 hPa 0,0 l/m N 0,00 h 0 W/m 0,0 km/h (0 Bft)
15.04.2015 04:00 5,4 C 81 % 1022,2 hPa 0,0 l/m N 0,00 h 0 W/m 0,1 km/h (0 Bft)
15.04.2015 05:00 4,9 C 84 % 1021,9 hPa 0,0 l/m N 0,00 h 0 W/m 0,0 km/h (0 Bft)
15.04.2015 06:00 4,3 C 85 % 1021,8 hPa 0,0 l/m N 0,08 h 10 W/m 0,0 km/h (0 Bft)
15.04.2015 07:00 4,3 C 88 % 1021,6 hPa 0,0 l/m N 0,08 h 62 W/m 0,0 km/h (0 Bft)
15.04.2015 08:00 8,1 C 79 % 1021,4 hPa 0,0 l/m W-SW 1,00 h 233 W/m 2,8 km/h (1 Bft)
15.04.2015 09:00 12,6 C 59 % 1021,0 hPa 0,0 l/m SW 1,00 h 411 W/m 10,2 km/h (2 Bft)
15.04.2015 10:00 15,6 C 46 % 1020,8 hPa 0,0 l/m S-SW 1,00 h 533 W/m 11,8 km/h (2 Bft)
15.04.2015 11:00 17,8 C 40 % 1020,2 hPa 0,0 l/m SW 1,00 h 694 W/m 9,5 km/h (2 Bft)
15.04.2015 12:00 19,7 C 32 % 1019,5 hPa 0,0 l/m S 1,00 h 769 W/m 7,1 km/h (2 Bft)
15.04.2015 13:00 21,7 C 29 % 1018,9 hPa 0,0 l/m S 1,00 h 832 W/m 7,2 km/h (2 Bft)
15.04.2015 14:00 23,0 C 26 % 1018,2 hPa 0,0 l/m SW 1,00 h 811 W/m 12,0 km/h (2 Bft)
15.04.2015 15:00 23,8 C 25 % 1017,2 hPa 0,0 l/m SW 1,00 h 736 W/m 15,0 km/h (3 Bft)
15.04.2015 16:00 24,0 C 26 % 1016,4 hPa 0,0 l/m SW 1,00 h 616 W/m 14,9 km/h (3 Bft)
15.04.2015 17:00 23,1 C 22 % 1015,6 hPa 0,0 l/m SW 1,00 h 373 W/m 14,5 km/h (3 Bft)
15.04.2015 18:00 21,8 C 23 % 1015,0 hPa 0,0 l/m SW 0,92 h 184 W/m 10,7 km/h (2 Bft)
15.04.2015 19:00 19,9 C 28 % 1014,5 hPa 0,0 l/m W-SW 0,08 h 37 W/m 8,6 km/h (2 Bft)
15.04.2015 20:00 17,2 C 35 % 1014,6 hPa 0,0 l/m W-SW 0,08 h 6 W/m 6,3 km/h (2 Bft)
15.04.2015 21:00 14,7 C 45 % 1015,0 hPa 0,0 l/m W-SW 0,00 h 0 W/m 1,9 km/h (1 Bft)
15.04.2015 22:00 12,0 C 57 % 1014,9 hPa 0,0 l/m N 0,00 h 0 W/m 0,1 km/h (0 Bft)
15.04.2015 23:00 10,3 C 63 % 1014,9 hPa 0,0 l/m N 0,00 h 0 W/m 0,3 km/h (0 Bft)
16.04.2015 00:00 9,5 C 63 % 1014,6 hPa 0,0 l/m N 0,00 h 0 W/m 0,0 km/h (0 Bft)
16.04.2015 01:00 8,5 C 66 % 1014,4 hPa 0,0 l/m N 0,00 h 0 W/m 0,0 km/h (0 Bft)
16.04.2015 02:00 8,0 C 67 % 1014,3 hPa 0,0 l/m W-SW 0,00 h 0 W/m 2,0 km/h (1 Bft)
16.04.2015 03:00 8,0 C 68 % 1014,1 hPa 0,0 l/m W-SW 0,00 h 0 W/m 2,3 km/h (1 Bft)
16.04.2015 04:00 7,5 C 70 % 1013,8 hPa 0,0 l/m N 0,00 h 0 W/m 0,1 km/h (0 Bft)
16.04.2015 05:00 6,9 C 73 % 1013,4 hPa 0,0 l/m W-SW 0,00 h 0 W/m 0,4 km/h (0 Bft)
16.04.2015 06:00 6,5 C 74 % 1013,5 hPa 0,0 l/m W-SW 0,00 h 9 W/m 1,9 km/h (1 Bft)
16.04.2015 07:00 8,5 C 70 % 1014,0 hPa 0,0 l/m W-SW 0,17 h 77 W/m 4,8 km/h (1 Bft)
16.04.2015 08:00 11,8 C 63 % 1014,2 hPa 0,0 l/m S 0,42 h 173 W/m 8,7 km/h (2 Bft)
16.04.2015 09:00 13,7 C 57 % 1014,2 hPa 0,0 l/m S-SO 0,58 h 354 W/m 12,6 km/h (3 Bft)
16.04.2015 10:00 16,5 C 49 % 1014,0 hPa 0,0 l/m S-SO 0,42 h 353 W/m 10,9 km/h (2 Bft)
16.04.2015 11:00 17,7 C 49 % 1013,8 hPa 0,0 l/m SW 0,67 h 404 W/m 12,5 km/h (3 Bft)
16.04.2015 12:00 18,6 C 41 % 1013,7 hPa 0,0 l/m SW 0,00 h 230 W/m 14,6 km/h (3 Bft)
16.04.2015 13:00 20,0 C 36 % 1013,2 hPa 0,0 l/m SW 0,67 h 532 W/m 14,6 km/h (3 Bft)
16.04.2015 14:00 21,5 C 26 % 1012,4 hPa 0,0 l/m W-NW 1,00 h 611 W/m 16,9 km/h (3 Bft)
16.04.2015 15:00 21,6 C 28 % 1011,7 hPa 0,0 l/m W 0,33 h 428 W/m 15,0 km/h (3 Bft)
16.04.2015 16:00 21,8 C 30 % 1011,0 hPa 0,0 l/m W-SW 0,33 h 281 W/m 20,5 km/h (4 Bft)
16.04.2015 17:00 21,6 C 32 % 1010,5 hPa 0,0 l/m W-SW 0,92 h 313 W/m 18,1 km/h (3 Bft)
16.04.2015 18:00 20,9 C 34 % 1010,3 hPa 0,0 l/m W-SW 0,17 h 110 W/m 16,2 km/h (3 Bft)
16.04.2015 19:00 19,3 C 40 % 1010,4 hPa 0,0 l/m W-SW 0,00 h 18 W/m 20,9 km/h (4 Bft)
16.04.2015 20:00 18,0 C 42 % 1010,8 hPa 0,0 l/m W-SW 0,00 h 0 W/m 22,8 km/h (4 Bft)
16.04.2015 21:00 17,3 C 46 % 1011,2 hPa 0,0 l/m W 0,00 h 0 W/m 21,6 km/h (4 Bft)
16.04.2015 22:00 16,0 C 58 % 1011,6 hPa 0,0 l/m W-NW 0,00 h 0 W/m 13,6 km/h (3 Bft)
16.04.2015 23:00 14,2 C 73 % 1011,5 hPa 0,2 l/m W-SW 0,00 h 0 W/m 8,7 km/h (2 Bft)
17.04.2015 00:00 13,4 C 78 % 1011,3 hPa 0,0 l/m W-SW 0,00 h 0 W/m 2,3 km/h (1 Bft)
17.04.2015 01:00 12,9 C 82 % 1011,0 hPa 0,0 l/m N 0,00 h 0 W/m 0,9 km/h (0 Bft)
17.04.2015 02:00 12,3 C 83 % 1010,6 hPa 0,0 l/m W-SW 0,00 h 0 W/m 4,0 km/h (1 Bft)
17.04.2015 03:00 12,2 C 81 % 1010,2 hPa 0,0 l/m W-SW 0,00 h 0 W/m 2,9 km/h (1 Bft)
17.04.2015 04:00 12,3 C 80 % 1010,1 hPa 0,0 l/m SW 0,00 h 0 W/m 10,6 km/h (2 Bft)
17.04.2015 05:00 12,1 C 82 % 1009,9 hPa 0,0 l/m SW 0,00 h 0 W/m 8,9 km/h (2 Bft)
17.04.2015 06:00 11,6 C 85 % 1009,6 hPa 0,0 l/m SW 0,00 h 7 W/m 9,7 km/h (2 Bft)
17.04.2015 07:00 11,5 C 88 % 1009,5 hPa 0,0 l/m SW 0,00 h 28 W/m 13,2 km/h (3 Bft)
17.04.2015 08:00 11,5 C 90 % 1009,8 hPa 0,0 l/m SW 0,00 h 41 W/m 8,9 km/h (2 Bft)
17.04.2015 09:00 12,1 C 91 % 1009,9 hPa 0,0 l/m SW 0,00 h 85 W/m 12,9 km/h (3 Bft)
17.04.2015 10:00 12,5 C 89 % 1010,0 hPa 0,0 l/m W-SW 0,00 h 95 W/m 15,8 km/h (3 Bft)
17.04.2015 11:00 12,8 C 86 % 1010,2 hPa 0,0 l/m SW 0,00 h 157 W/m 17,0 km/h (3 Bft)
17.04.2015 12:00 14,5 C 82 % 1010,0 hPa 0,0 l/m W-SW 0,33 h 392 W/m 23,1 km/h (4 Bft)
17.04.2015 13:00 14,4 C 80 % 1009,9 hPa 0,0 l/m SW 0,17 h 242 W/m 23,5 km/h (4 Bft)
17.04.2015 14:00 14,9 C 78 % 1009,6 hPa 0,0 l/m SW 0,00 h 220 W/m 24,1 km/h (4 Bft)
17.04.2015 15:00 13,8 C 81 % 1010,0 hPa 1,6 l/m N-NO 0,00 h 104 W/m 18,9 km/h (3 Bft)
17.04.2015 16:00 11,1 C 92 % 1010,3 hPa 1,6 l/m N 0,00 h 64 W/m 1,7 km/h (1 Bft)
17.04.2015 17:00 11,1 C 94 % 1010,6 hPa 6,6 l/m N-NO 0,00 h 32 W/m 4,8 km/h (1 Bft)
17.04.2015 18:00 10,2 C 95 % 1011,2 hPa 3,0 l/m N 0,00 h 24 W/m 3,6 km/h (1 Bft)
17.04.2015 19:00 10,3 C 96 % 1011,4 hPa 2,0 l/m N 0,00 h 8 W/m 3,3 km/h (1 Bft)
17.04.2015 20:00 10,2 C 97 % 1012,3 hPa 1,6 l/m N 0,00 h 0 W/m 8,0 km/h (2 Bft)
17.04.2015 21:00 9,0 C 95 % 1013,5 hPa 2,0 l/m NO 0,00 h 0 W/m 14,6 km/h (3 Bft)
17.04.2015 22:00 7,3 C 93 % 1014,4 hPa 0,0 l/m NO 0,00 h 0 W/m 3,2 km/h (1 Bft)
17.04.2015 23:00 7,1 C 93 % 1015,0 hPa 0,0 l/m N 0,00 h 0 W/m 2,1 km/h (1 Bft)
18.04.2015 00:00 7,1 C 94 % 1015,7 hPa 0,0 l/m NO 0,00 h 0 W/m 2,1 km/h (1 Bft)
18.04.2015 01:00 6,5 C 92 % 1016,3 hPa 0,0 l/m NO 0,00 h 0 W/m 10,6 km/h (2 Bft)
18.04.2015 02:00 5,8 C 89 % 1016,7 hPa 0,0 l/m NO 0,00 h 0 W/m 6,8 km/h (2 Bft)
18.04.2015 03:00 5,2 C 90 % 1017,1 hPa 0,0 l/m N-NO 0,00 h 0 W/m 7,2 km/h (2 Bft)
18.04.2015 04:00 4,7 C 89 % 1017,4 hPa 0,0 l/m NO 0,00 h 0 W/m 7,5 km/h (2 Bft)
18.04.2015 05:00 3,9 C 89 % 1017,7 hPa 0,0 l/m N-NO 0,00 h 0 W/m 5,7 km/h (1 Bft)
18.04.2015 06:00 3,5 C 91 % 1018,3 hPa 0,0 l/m N-NO 0,00 h 11 W/m 6,4 km/h (2 Bft)
18.04.2015 07:00 3,9 C 87 % 1018,9 hPa 0,0 l/m NO 0,25 h 85 W/m 12,9 km/h (3 Bft)
18.04.2015 08:00 4,9 C 82 % 1019,4 hPa 0,0 l/m O-NO 0,42 h 178 W/m 17,8 km/h (3 Bft)
18.04.2015 09:00 5,9 C 75 % 1019,9 hPa 0,0 l/m O-NO 0,58 h 297 W/m 19,8 km/h (4 Bft)
18.04.2015 10:00 7,4 C 63 % 1020,4 hPa 0,0 l/m NO 0,75 h 428 W/m 23,0 km/h (4 Bft)
18.04.2015 11:00 8,3 C 55 % 1021,0 hPa 0,0 l/m O-NO 0,33 h 407 W/m 23,2 km/h (4 Bft)
18.04.2015 12:00 8,4 C 54 % 1021,4 hPa 0,0 l/m O-NO 0,00 h 245 W/m 20,4 km/h (4 Bft)
18.04.2015 13:00 8,8 C 54 % 1021,4 hPa 0,0 l/m O 0,08 h 291 W/m 19,7 km/h (3 Bft)
18.04.2015 14:00 9,6 C 50 % 1021,5 hPa 0,0 l/m O 0,33 h 449 W/m 21,0 km/h (4 Bft)
18.04.2015 15:00 9,8 C 49 % 1021,3 hPa 0,0 l/m O 0,42 h 462 W/m 20,4 km/h (4 Bft)
18.04.2015 16:00 10,5 C 46 % 1020,9 hPa 0,0 l/m O-SO 0,58 h 481 W/m 20,4 km/h (4 Bft)
18.04.2015 17:00 10,7 C 44 % 1020,6 hPa 0,0 l/m O 0,58 h 338 W/m 19,7 km/h (3 Bft)
18.04.2015 18:00 10,1 C 44 % 1020,6 hPa 0,0 l/m O-SO 0,83 h 255 W/m 17,0 km/h (3 Bft)
18.04.2015 19:00 9,3 C 47 % 1020,7 hPa 0,0 l/m O 0,17 h 53 W/m 14,1 km/h (3 Bft)
18.04.2015 20:00 7,5 C 55 % 1020,9 hPa 0,0 l/m O 0,00 h 8 W/m 5,3 km/h (1 Bft)
18.04.2015 21:00 6,0 C 62 % 1021,3 hPa 0,0 l/m O 0,00 h 0 W/m 2,4 km/h (1 Bft)
18.04.2015 22:00 4,3 C 71 % 1021,1 hPa 0,0 l/m N 0,00 h 0 W/m 2,0 km/h (1 Bft)
18.04.2015 23:00 3,5 C 73 % 1020,8 hPa 0,0 l/m O 0,00 h 0 W/m 2,0 km/h (1 Bft)
19.04.2015 00:00 2,9 C 74 % 1020,7 hPa 0,0 l/m O-NO 0,00 h 0 W/m 3,1 km/h (1 Bft)
19.04.2015 01:00 3,1 C 72 % 1020,4 hPa 0,0 l/m NO 0,00 h 0 W/m 7,9 km/h (2 Bft)
19.04.2015 02:00 2,9 C 73 % 1020,0 hPa 0,0 l/m NO 0,00 h 0 W/m 6,7 km/h (2 Bft)
19.04.2015 03:00 2,3 C 75 % 1019,5 hPa 0,0 l/m NO 0,00 h 0 W/m 8,4 km/h (2 Bft)
19.04.2015 04:00 1,9 C 76 % 1018,8 hPa 0,0 l/m NO 0,00 h 0 W/m 8,0 km/h (2 Bft)
19.04.2015 05:00 1,4 C 78 % 1018,0 hPa 0,0 l/m NO 0,00 h 0 W/m 9,0 km/h (2 Bft)
19.04.2015 06:00 1,2 C 79 % 1017,8 hPa 0,0 l/m N-NO 0,00 h 11 W/m 10,2 km/h (2 Bft)
19.04.2015 07:00 1,8 C 78 % 1017,7 hPa 0,0 l/m NO 0,17 h 75 W/m 8,2 km/h (2 Bft)
19.04.2015 08:00 4,4 C 71 % 1017,7 hPa 0,0 l/m NO 1,00 h 256 W/m 14,5 km/h (3 Bft)
19.04.2015 09:00 6,7 C 62 % 1017,9 hPa 0,0 l/m O-NO 1,00 h 430 W/m 20,2 km/h (4 Bft)
19.04.2015 10:00 8,5 C 53 % 1017,8 hPa 0,0 l/m O-NO 1,00 h 589 W/m 26,1 km/h (4 Bft)
19.04.2015 11:00 10,0 C 48 % 1017,8 hPa 0,0 l/m O-NO 1,00 h 715 W/m 25,5 km/h (4 Bft)
19.04.2015 12:00 11,8 C 45 % 1017,4 hPa 0,0 l/m O 1,00 h 801 W/m 24,4 km/h (4 Bft)
19.04.2015 13:00 13,2 C 42 % 1017,0 hPa 0,0 l/m O-NO 1,00 h 831 W/m 26,4 km/h (4 Bft)
19.04.2015 14:00 14,3 C 39 % 1016,8 hPa 0,0 l/m O-NO 1,00 h 803 W/m 24,8 km/h (4 Bft)
19.04.2015 15:00 15,0 C 38 % 1016,4 hPa 0,0 l/m O-NO 1,00 h 727 W/m 24,8 km/h (4 Bft)
19.04.2015 16:00 15,4 C 38 % 1016,0 hPa 0,0 l/m O-SO 1,00 h 615 W/m 22,8 km/h (4 Bft)
19.04.2015 17:00 15,1 C 37 % 1016,0 hPa 0,0 l/m O 1,00 h 464 W/m 23,9 km/h (4 Bft)
19.04.2015 18:00 14,5 C 39 % 1016,5 hPa 0,0 l/m O 1,00 h 281 W/m 20,9 km/h (4 Bft)
19.04.2015 19:00 12,9 C 43 % 1017,0 hPa 0,0 l/m O-NO 0,25 h 52 W/m 15,0 km/h (3 Bft)
19.04.2015 20:00 11,0 C 47 % 1017,7 hPa 0,0 l/m O-NO 0,08 h 8 W/m 7,4 km/h (2 Bft)
19.04.2015 21:00 9,4 C 51 % 1018,6 hPa 0,0 l/m O-NO 0,00 h 0 W/m 8,7 km/h (2 Bft)
19.04.2015 22:00 8,5 C 54 % 1019,3 hPa 0,0 l/m O-NO 0,00 h 0 W/m 6,9 km/h (2 Bft)
19.04.2015 23:00 6,9 C 61 % 1019,8 hPa 0,0 l/m N 0,00 h 0 W/m 2,9 km/h (1 Bft)
Min-Datum _ 19.04.15 15.04.15 17.04.15 - - - - 13.04.15
_ Min-Zeit 06:55 17:30 06:50 - - - - 00:00
Minimum _ 1,0 C 20 % 1009,4 hPa - - - - 0,0 km/h (0 Bft)
Max-Datum _ 15.04.15 17.04.15 13.04.15 17.04.15 - 13.04.15 18.04.15 18.04.15
_ Max-Zeit 15:55 19:45 10:40 17:40 - 08:05 14:45 15:05
Maximum _ 24,1 C 97 % 1029,3 hPa 6,6 l/m - 0,08 h 1009 W/m 35,4 km/h
O-NO (5 Bft)
Durchschnitt _ 11,4 C 64 % 1019,2 hPa #18,6 l/m W-SW #53:35 h 328 W/m 10,2 km/h (2 Bft)